Time;durP1;ratioP1;P1;durP2;ratioP2;P2;SDS_P1;SDS_P2;PMS_P1;PMS_P2;Temp;Humidity;BMP_temperature;BMP_pressure;BME280_temperature;BME280_humidity;BME280_pressure;Samples;Min_cycle;Max_cycle;Signal;HPM_P1;HPM_P2
2023/11/14 00:00:33;;;;;;;0.10;0.10;;;10.70;99.90;;;;;;5057286;28;20503;-78
2023/11/14 00:03:00;;;;;;;0.10;0.10;;;10.70;99.90;;;;;;5056934;28;20251;-78
2023/11/14 00:05:25;;;;;;;0.10;0.10;;;10.70;99.90;;;;;;5056363;28;20201;-78
2023/11/14 00:07:51;;;;;;;0.10;0.10;;;10.70;99.90;;;;;;5061181;28;20666;-78
2023/11/14 00:10:16;;;;;;;0.10;0.10;;;10.70;99.90;;;;;;5060830;28;20185;-77
2023/11/14 00:12:42;;;;;;;0.10;0.10;;;10.70;99.90;;;;;;5056740;28;20227;-78
2023/11/14 00:15:09;;;;;;;0.10;0.10;;;10.70;99.90;;;;;;5054912;28;20213;-78
2023/11/14 00:17:35;;;;;;;0.10;0.10;;;10.70;99.90;;;;;;5057956;28;20215;-79
2023/11/14 00:20:00;;;;;;;0.10;0.10;;;10.70;99.90;;;;;;5058559;28;20672;-79
2023/11/14 00:22:26;;;;;;;0.07;0.07;;;10.70;99.90;;;;;;5057059;28;20182;-79
2023/11/14 00:24:52;;;;;;;0.10;0.10;;;10.70;99.90;;;;;;5059627;28;20217;-79
2023/11/14 00:27:18;;;;;;;0.10;0.10;;;10.70;99.90;;;;;;5056647;28;20291;-78
2023/11/14 00:29:44;;;;;;;0.10;0.10;;;10.70;99.90;;;;;;5057509;28;20197;-78
2023/11/14 00:32:09;;;;;;;0.10;0.10;;;10.70;99.90;;;;;;5056661;28;20236;-78
2023/11/14 00:34:35;;;;;;;0.10;0.10;;;10.70;99.90;;;;;;5059518;28;20216;-78
2023/11/14 00:37:01;;;;;;;0.10;0.10;;;10.60;99.90;;;;;;5059130;28;20208;-78
2023/11/14 00:39:27;;;;;;;0.10;0.10;;;10.50;99.90;;;;;;5058092;28;20192;-78
2023/11/14 00:41:53;;;;;;;0.10;0.10;;;10.50;99.90;;;;;;5058480;28;20188;-78
2023/11/14 00:44:24;;;;;;;0.10;0.10;;;10.50;99.90;;;;;;5059161;28;20215;-78
2023/11/14 00:46:50;;;;;;;0.10;0.10;;;10.50;99.90;;;;;;5055735;28;20327;-78
2023/11/14 00:49:15;;;;;;;0.10;0.10;;;10.50;99.90;;;;;;5058102;28;20638;-78
2023/11/14 00:51:41;;;;;;;0.10;0.10;;;10.50;99.90;;;;;;5058215;28;20193;-78
2023/11/14 00:54:06;;;;;;;0.10;0.10;;;10.40;99.90;;;;;;5057899;28;20205;-78
2023/11/14 00:56:32;;;;;;;0.10;0.10;;;10.40;99.90;;;;;;5057084;28;20197;-78
2023/11/14 00:58:57;;;;;;;0.10;0.10;;;10.40;99.90;;;;;;5056786;28;20177;-79
2023/11/14 01:01:23;;;;;;;0.10;0.10;;;10.40;99.90;;;;;;5057321;28;20193;-78
2023/11/14 01:03:48;;;;;;;0.10;0.10;;;10.40;99.90;;;;;;5056396;28;20295;-78
2023/11/14 01:06:14;;;;;;;0.10;0.10;;;10.40;99.90;;;;;;5059250;28;20260;-79
2023/11/14 01:08:39;;;;;;;0.10;0.10;;;10.30;99.90;;;;;;5060310;28;20284;-78
2023/11/14 01:11:05;;;;;;;0.10;0.10;;;10.40;99.90;;;;;;5059013;28;20251;-79
2023/11/14 01:13:30;;;;;;;0.10;0.10;;;10.40;99.90;;;;;;5056228;28;20220;-78
2023/11/14 01:15:56;;;;;;;0.10;0.10;;;10.30;99.90;;;;;;5057801;28;20573;-78
2023/11/14 01:18:21;;;;;;;0.10;0.10;;;10.40;99.90;;;;;;5062236;28;20174;-78
2023/11/14 01:20:47;;;;;;;0.10;0.10;;;10.30;99.90;;;;;;5062306;28;20181;-79
2023/11/14 01:23:16;;;;;;;0.10;0.10;;;10.30;99.90;;;;;;5062032;28;20188;-78
2023/11/14 01:25:42;;;;;;;0.10;0.10;;;10.30;99.90;;;;;;5061238;28;20220;-77
2023/11/14 01:28:07;;;;;;;0.10;0.10;;;10.30;99.90;;;;;;5058843;28;20649;-78
2023/11/14 01:30:33;;;;;;;0.10;0.10;;;10.20;99.90;;;;;;5059755;28;20192;-78
2023/11/14 01:32:59;;;;;;;0.10;0.10;;;10.20;99.90;;;;;;5060170;28;20188;-78
2023/11/14 01:35:24;;;;;;;0.10;0.10;;;10.20;99.90;;;;;;5062983;28;20213;-78
2023/11/14 01:37:50;;;;;;;0.10;0.10;;;10.20;99.90;;;;;;5058770;28;20196;-78
2023/11/14 01:40:16;;;;;;;0.10;0.10;;;10.10;99.90;;;;;;5060320;28;20182;-78
2023/11/14 01:42:42;;;;;;;0.10;0.10;;;10.10;99.90;;;;;;5059763;28;20287;-78
2023/11/14 01:45:07;;;;;;;0.00;0.00;;;10.10;99.90;;;;;;5060465;28;20322;-78
2023/11/14 01:47:33;;;;;;;0.10;0.10;;;10.00;99.90;;;;;;5060000;28;20188;-78
2023/11/14 01:50:00;;;;;;;0.10;0.10;;;10.00;99.90;;;;;;5059728;28;20219;-78
2023/11/14 01:52:27;;;;;;;0.10;0.10;;;10.00;99.90;;;;;;5060347;28;20267;-78
2023/11/14 01:54:53;;;;;;;0.10;0.10;;;10.00;99.90;;;;;;5060157;28;20219;-78
2023/11/14 01:57:19;;;;;;;0.10;0.10;;;10.00;99.90;;;;;;5060259;28;20212;-78
2023/11/14 01:59:47;;;;;;;0.10;0.10;;;10.00;99.90;;;;;;5061523;28;20706;-78
2023/11/14 02:02:14;;;;;;;0.10;0.10;;;10.00;99.90;;;;;;5062334;28;20188;-78
2023/11/14 02:04:41;;;;;;;0.10;0.10;;;10.00;99.90;;;;;;5062549;28;20181;-78
2023/11/14 02:07:07;;;;;;;0.10;0.10;;;10.00;99.90;;;;;;5061119;28;20197;-79
2023/11/14 02:09:33;;;;;;;0.20;0.20;;;10.10;99.90;;;;;;5058419;28;20660;-78
2023/11/14 02:11:59;;;;;;;0.00;0.00;;;10.10;99.90;;;;;;5061842;28;20173;-79
2023/11/14 02:14:24;;;;;;;0.00;0.00;;;10.00;99.90;;;;;;5060043;28;20211;-79
2023/11/14 02:16:55;;;;;;;0.10;0.10;;;10.10;99.90;;;;;;5058837;28;20213;-79
2023/11/14 02:19:21;;;;;;;0.10;0.10;;;10.10;99.90;;;;;;5060459;28;20660;-79
2023/11/14 02:21:47;;;;;;;0.10;0.10;;;10.00;99.90;;;;;;5058698;28;20596;-78
2023/11/14 02:24:21;;;;;;;0.10;0.10;;;9.90;99.90;;;;;;5059864;28;20211;-78
2023/11/14 02:26:50;;;;;;;0.10;0.10;;;9.90;99.90;;;;;;5058393;28;20350;-78
2023/11/14 02:29:17;;;;;;;0.10;0.10;;;10.00;99.90;;;;;;5058852;28;20196;-78
2023/11/14 02:31:43;;;;;;;0.10;0.10;;;9.90;99.90;;;;;;5061710;28;20189;-78
2023/11/14 02:34:10;;;;;;;0.10;0.10;;;9.80;99.90;;;;;;5058696;28;20217;-78
2023/11/14 02:36:37;;;;;;;0.10;0.10;;;9.80;99.90;;;;;;5058864;28;20233;-78
2023/11/14 02:39:04;;;;;;;0.10;0.10;;;9.90;99.90;;;;;;5059649;28;20276;-78
2023/11/14 02:41:30;;;;;;;0.10;0.10;;;9.90;99.90;;;;;;5057388;28;20688;-78
2023/11/14 02:43:57;;;;;;;0.10;0.10;;;9.90;99.90;;;;;;5058994;28;20185;-78
2023/11/14 02:46:23;;;;;;;0.10;0.10;;;9.80;99.90;;;;;;5060821;28;20395;-78
2023/11/14 02:48:48;;;;;;;0.10;0.10;;;9.90;99.90;;;;;;5059699;28;20196;-78
2023/11/14 02:51:14;;;;;;;0.00;0.00;;;9.80;99.90;;;;;;5060830;28;20193;-78
2023/11/14 02:53:39;;;;;;;0.10;0.10;;;9.80;99.90;;;;;;5057842;28;20228;-78
2023/11/14 02:56:05;;;;;;;0.10;0.10;;;9.80;99.90;;;;;;5058559;28;20204;-78
2023/11/14 02:58:31;;;;;;;0.10;0.10;;;9.70;99.90;;;;;;5058655;28;20719;-78
2023/11/14 03:00:56;;;;;;;0.10;0.10;;;9.70;99.90;;;;;;5059983;28;20196;-78
2023/11/14 03:03:22;;;;;;;0.10;0.10;;;9.70;99.90;;;;;;5059388;28;20184;-78
2023/11/14 03:05:47;;;;;;;0.10;0.10;;;9.90;99.90;;;;;;5058332;28;20296;-79
2023/11/14 03:08:13;;;;;;;0.10;0.10;;;10.00;99.90;;;;;;5058520;28;20181;-79
2023/11/14 03:10:39;;;;;;;0.10;0.10;;;10.00;99.90;;;;;;5057799;28;20217;-78
2023/11/14 03:13:06;;;;;;;0.10;0.10;;;10.10;99.90;;;;;;5057849;28;20236;-77
2023/11/14 03:15:32;;;;;;;0.10;0.10;;;10.20;99.90;;;;;;5060062;28;20217;-78
2023/11/14 03:17:58;;;;;;;0.10;0.10;;;10.20;99.90;;;;;;5058458;28;20215;-78
2023/11/14 03:20:25;;;;;;;0.10;0.10;;;10.20;99.90;;;;;;5061063;28;20197;-78
2023/11/14 03:22:51;;;;;;;0.10;0.10;;;10.20;99.90;;;;;;5058841;28;20763;-79
2023/11/14 03:25:17;;;;;;;0.10;0.10;;;10.30;99.90;;;;;;5058754;28;20197;-79
2023/11/14 03:27:43;;;;;;;0.10;0.10;;;10.40;99.90;;;;;;5060094;28;20254;-79
2023/11/14 03:30:09;;;;;;;0.10;0.10;;;10.40;99.90;;;;;;5059725;28;20197;-79
2023/11/14 03:32:35;;;;;;;0.10;0.10;;;10.40;99.90;;;;;;5058815;28;20193;-78
2023/11/14 03:35:01;;;;;;;0.10;0.10;;;10.40;99.90;;;;;;5058503;28;20236;-79
2023/11/14 03:37:26;;;;;;;0.10;0.10;;;10.40;99.90;;;;;;5057243;28;20205;-79
2023/11/14 03:39:52;;;;;;;0.10;0.10;;;10.40;99.90;;;;;;5055015;28;20230;-79
2023/11/14 03:42:18;;;;;;;0.10;0.10;;;10.40;99.90;;;;;;5059158;28;20188;-79
2023/11/14 03:44:44;;;;;;;0.10;0.10;;;10.40;99.90;;;;;;5059502;28;20615;-79
2023/11/14 03:47:09;;;;;;;0.10;0.10;;;10.40;99.90;;;;;;5059239;28;20200;-79
2023/11/14 03:49:35;;;;;;;0.10;0.10;;;10.30;99.90;;;;;;5058268;28;20186;-79
2023/11/14 03:52:00;;;;;;;0.10;0.10;;;10.30;99.90;;;;;;5057143;28;20189;-79
2023/11/14 03:54:26;;;;;;;0.10;0.10;;;10.20;99.90;;;;;;5057933;28;20201;-79
2023/11/14 03:56:51;;;;;;;0.10;0.10;;;10.20;99.90;;;;;;5058473;28;20197;-78
2023/11/14 03:59:17;;;;;;;0.10;0.10;;;10.30;99.90;;;;;;5058461;28;20243;-78
2023/11/14 04:01:42;;;;;;;0.10;0.10;;;10.30;99.90;;;;;;5058414;28;20196;-78
2023/11/14 04:04:08;;;;;;;0.10;0.10;;;10.20;99.90;;;;;;5060925;28;20562;-78
2023/11/14 04:06:33;;;;;;;0.10;0.10;;;10.20;99.90;;;;;;5060053;28;20598;-78
2023/11/14 04:08:59;;;;;;;0.10;0.10;;;10.20;99.90;;;;;;5057771;28;20220;-78
2023/11/14 04:11:24;;;;;;;0.10;0.10;;;10.20;99.90;;;;;;5057095;28;20187;-78
2023/11/14 04:13:50;;;;;;;0.10;0.10;;;10.20;99.90;;;;;;5057524;28;20221;-78
2023/11/14 04:16:15;;;;;;;0.10;0.10;;;10.20;99.90;;;;;;5057033;28;20193;-77
2023/11/14 04:18:42;;;;;;;0.10;0.10;;;10.20;99.90;;;;;;5058974;28;20185;-78
2023/11/14 04:21:09;;;;;;;0.00;0.00;;;10.20;99.90;;;;;;5057868;28;20231;-78
2023/11/14 04:23:35;;;;;;;0.10;0.10;;;10.30;99.90;;;;;;5058759;28;20656;-78
2023/11/14 04:26:01;;;;;;;0.10;0.10;;;10.40;99.90;;;;;;5056988;28;20262;-78
2023/11/14 04:28:27;;;;;;;0.03;0.03;;;10.40;99.90;;;;;;5054718;28;20239;-78
2023/11/14 04:30:52;;;;;;;0.10;0.10;;;10.50;99.90;;;;;;5056189;28;20555;-78
2023/11/14 04:33:18;;;;;;;0.10;0.10;;;10.50;99.90;;;;;;5055894;28;20173;-78
2023/11/14 04:35:44;;;;;;;0.10;0.10;;;10.60;99.90;;;;;;5056373;28;20245;-79
2023/11/14 04:38:10;;;;;;;0.10;0.10;;;10.60;99.90;;;;;;5060264;28;20225;-78
2023/11/14 04:40:35;;;;;;;0.13;0.13;;;10.60;99.90;;;;;;5055343;28;20229;-78
2023/11/14 04:43:01;;;;;;;0.10;0.10;;;10.60;99.90;;;;;;5056367;28;20555;-78
2023/11/14 04:45:27;;;;;;;0.10;0.10;;;10.50;99.90;;;;;;5054879;28;20185;-78
2023/11/14 04:47:53;;;;;;;0.10;0.10;;;10.50;99.90;;;;;;5058095;28;20189;-78
2023/11/14 04:50:21;;;;;;;0.10;0.10;;;10.60;99.90;;;;;;5057608;28;20189;-79
2023/11/14 04:52:47;;;;;;;0.10;0.10;;;10.60;99.90;;;;;;5064109;28;20189;-78
2023/11/14 04:55:12;;;;;;;0.10;0.10;;;10.60;99.90;;;;;;5059633;28;20209;-78
2023/11/14 04:57:38;;;;;;;0.10;0.10;;;10.60;99.90;;;;;;5060447;28;20178;-78
2023/11/14 05:00:05;;;;;;;0.10;0.10;;;10.60;99.90;;;;;;5061710;28;20267;-78
2023/11/14 05:02:30;;;;;;;0.10;0.10;;;10.50;99.90;;;;;;5061613;28;20184;-79
2023/11/14 05:04:57;;;;;;;0.10;0.10;;;10.50;99.90;;;;;;5062036;28;20178;-78
2023/11/14 05:07:22;;;;;;;0.10;0.10;;;10.60;99.90;;;;;;5059711;28;20209;-77
2023/11/14 05:09:48;;;;;;;0.10;0.10;;;10.60;99.90;;;;;;5062735;28;20177;-78
2023/11/14 05:12:14;;;;;;;0.10;0.10;;;10.60;99.90;;;;;;5059511;28;20200;-78
2023/11/14 05:14:39;;;;;;;0.10;0.10;;;10.60;99.90;;;;;;5061006;28;20200;-78
2023/11/14 05:17:05;;;;;;;0.10;0.10;;;10.60;99.90;;;;;;5062435;28;20807;-78
2023/11/14 05:19:30;;;;;;;0.10;0.10;;;10.70;99.90;;;;;;5061679;28;20661;-78
2023/11/14 05:21:56;;;;;;;0.10;0.10;;;10.70;99.90;;;;;;5062054;28;20231;-79
2023/11/14 05:24:21;;;;;;;0.10;0.10;;;10.80;99.90;;;;;;5061424;28;20263;-79
2023/11/14 05:26:48;;;;;;;0.10;0.10;;;10.90;99.90;;;;;;5059674;28;20209;-78
2023/11/14 05:29:14;;;;;;;0.10;0.10;;;11.00;99.90;;;;;;5060947;28;20275;-79
2023/11/14 05:31:39;;;;;;;0.10;0.10;;;11.00;99.90;;;;;;5059634;28;20260;-79
2023/11/14 05:34:05;;;;;;;0.10;0.10;;;11.00;99.90;;;;;;5058942;28;20197;-78
2023/11/14 05:36:30;;;;;;;0.10;0.10;;;10.90;99.90;;;;;;5058761;28;20250;-78
2023/11/14 05:38:56;;;;;;;0.10;0.10;;;10.90;99.90;;;;;;5061792;28;20177;-78
2023/11/14 05:41:22;;;;;;;0.10;0.10;;;10.90;99.90;;;;;;5066987;28;20207;-78
2023/11/14 05:43:47;;;;;;;0.10;0.10;;;10.90;99.90;;;;;;5064994;28;20596;-78
2023/11/14 05:46:13;;;;;;;0.10;0.10;;;10.90;99.90;;;;;;5062430;28;20219;-78
2023/11/14 05:48:38;;;;;;;0.10;0.10;;;10.90;99.90;;;;;;5061762;28;20202;-78
2023/11/14 05:51:04;;;;;;;0.10;0.10;;;10.90;99.90;;;;;;5059159;28;20197;-78
2023/11/14 05:53:30;;;;;;;0.10;0.10;;;10.90;99.90;;;;;;5060154;28;20211;-78
2023/11/14 05:55:56;;;;;;;0.10;0.10;;;11.00;99.90;;;;;;5058853;28;20422;-78
2023/11/14 05:58:22;;;;;;;0.07;0.07;;;11.00;99.90;;;;;;5059963;28;20189;-78
2023/11/14 06:00:48;;;;;;;0.10;0.10;;;11.00;99.90;;;;;;5061669;28;20173;-78
2023/11/14 06:03:15;;;;;;;0.10;0.10;;;11.10;99.90;;;;;;5059457;28;20218;-77
2023/11/14 06:05:41;;;;;;;0.10;0.10;;;11.10;99.90;;;;;;5059441;28;20247;-78
2023/11/14 06:08:07;;;;;;;0.07;0.07;;;11.10;99.90;;;;;;5063352;28;20192;-78
2023/11/14 06:10:32;;;;;;;0.10;0.10;;;11.20;99.90;;;;;;5061500;28;20177;-78
2023/11/14 06:12:58;;;;;;;0.07;0.07;;;11.20;99.90;;;;;;5065461;28;20697;-80
2023/11/14 06:15:24;;;;;;;0.10;0.10;;;11.20;99.90;;;;;;5066998;28;20271;-80
2023/11/14 06:17:50;;;;;;;0.10;0.10;;;11.20;99.90;;;;;;5065129;28;20747;-79
2023/11/14 06:20:17;;;;;;;0.10;0.10;;;11.20;99.90;;;;;;5061711;28;20188;-79
2023/11/14 06:22:42;;;;;;;0.10;0.10;;;11.20;99.90;;;;;;5058903;28;20231;-79
2023/11/14 06:25:08;;;;;;;0.00;0.00;;;11.30;99.90;;;;;;5061183;28;20189;-79
2023/11/14 06:27:34;;;;;;;0.10;0.10;;;11.30;99.90;;;;;;5062305;28;20206;-78
2023/11/14 06:29:59;;;;;;;0.07;0.07;;;11.40;99.90;;;;;;5066266;28;20265;-79
2023/11/14 06:32:25;;;;;;;0.10;0.10;;;11.40;99.90;;;;;;5065094;28;20251;-79
2023/11/14 06:34:51;;;;;;;0.10;0.10;;;11.40;99.90;;;;;;5065315;28;20237;-79
2023/11/14 06:37:18;;;;;;;0.00;0.00;;;11.30;99.90;;;;;;5065685;28;20225;-79
2023/11/14 06:39:44;;;;;;;0.10;0.10;;;11.30;99.90;;;;;;5061281;28;20234;-79
2023/11/14 06:42:09;;;;;;;0.10;0.10;;;11.30;99.90;;;;;;5065488;28;20186;-79
2023/11/14 06:44:35;;;;;;;0.10;0.10;;;11.30;99.90;;;;;;5062633;28;20245;-79
2023/11/14 06:47:01;;;;;;;0.10;0.10;;;11.40;99.90;;;;;;5064353;28;20212;-80
2023/11/14 06:49:27;;;;;;;0.10;0.10;;;11.40;99.90;;;;;;5064921;28;20180;-78
2023/11/14 06:51:52;;;;;;;0.00;0.00;;;11.50;99.90;;;;;;5061744;28;20185;-79
2023/11/14 06:54:18;;;;;;;0.10;0.10;;;11.50;99.90;;;;;;5062106;28;20206;-80
2023/11/14 06:56:43;;;;;;;0.10;0.10;;;11.50;99.90;;;;;;5061578;28;20219;-79
2023/11/14 06:59:10;;;;;;;0.10;0.10;;;11.60;99.90;;;;;;5058588;28;20227;-80
2023/11/14 07:01:36;;;;;;;0.10;0.10;;;11.60;99.90;;;;;;5055555;28;20185;-79
2023/11/14 07:04:02;;;;;;;0.10;0.10;;;11.60;99.90;;;;;;5059210;28;20181;-80
2023/11/14 07:06:28;;;;;;;0.10;0.10;;;11.50;99.90;;;;;;5059538;28;20224;-79
2023/11/14 07:08:55;;;;;;;0.10;0.10;;;11.60;99.90;;;;;;5056791;28;20212;-80
2023/11/14 07:11:21;;;;;;;0.10;0.10;;;11.60;99.90;;;;;;5057573;28;20198;-79
2023/11/14 07:13:47;;;;;;;0.10;0.10;;;11.60;99.90;;;;;;5060146;28;20740;-78
2023/11/14 07:16:13;;;;;;;0.10;0.10;;;11.60;99.90;;;;;;5055615;28;20246;-79
2023/11/14 07:18:39;;;;;;;0.10;0.10;;;11.70;99.90;;;;;;5060090;28;20185;-80
2023/11/14 07:21:05;;;;;;;0.10;0.10;;;11.80;99.90;;;;;;5057301;28;20217;-80
2023/11/14 07:23:30;;;;;;;0.10;0.10;;;11.90;99.90;;;;;;5059400;28;20243;-79
2023/11/14 07:25:56;;;;;;;0.10;0.10;;;11.80;99.90;;;;;;5059034;28;20675;-80
2023/11/14 07:28:21;;;;;;;0.10;0.10;;;11.90;99.90;;;;;;5057827;28;20664;-80
2023/11/14 07:30:48;;;;;;;0.10;0.10;;;11.90;99.90;;;;;;5060846;28;20216;-80
2023/11/14 07:33:17;;;;;;;0.10;0.10;;;11.90;99.90;;;;;;5056152;28;21274;-80
2023/11/14 07:35:43;;;;;;;0.10;0.10;;;12.00;99.90;;;;;;5058483;28;20223;-80
2023/11/14 07:38:08;;;;;;;0.10;0.10;;;12.00;99.90;;;;;;5061428;28;20189;-80
2023/11/14 07:40:34;;;;;;;0.10;0.10;;;12.00;99.90;;;;;;5059378;28;20192;-80
2023/11/14 07:43:02;;;;;;;0.10;0.10;;;12.00;99.90;;;;;;5057264;28;20181;-80
2023/11/14 07:45:28;;;;;;;0.10;0.10;;;12.10;99.90;;;;;;5058516;28;20204;-80
2023/11/14 07:47:54;;;;;;;0.10;0.10;;;12.10;99.90;;;;;;5058828;28;20221;-79
2023/11/14 07:50:19;;;;;;;0.10;0.10;;;12.20;99.90;;;;;;5057254;28;20273;-79
2023/11/14 07:52:45;;;;;;;0.10;0.10;;;12.20;99.90;;;;;;5058629;28;20651;-79
2023/11/14 07:55:11;;;;;;;0.10;0.10;;;12.20;99.90;;;;;;5058986;28;20202;-79
2023/11/14 07:57:37;;;;;;;0.10;0.10;;;12.20;99.90;;;;;;5058692;28;20189;-79
2023/11/14 08:00:07;;;;;;;0.10;0.10;;;12.20;99.90;;;;;;5055971;28;20698;-79
2023/11/14 08:02:33;;;;;;;0.10;0.10;;;12.20;99.90;;;;;;5056376;28;20182;-79
2023/11/14 08:04:58;;;;;;;0.10;0.10;;;12.20;99.90;;;;;;5055380;28;20294;-79
2023/11/14 08:07:24;;;;;;;0.10;0.10;;;12.10;99.90;;;;;;5053493;28;20226;-79
2023/11/14 08:09:49;;;;;;;0.10;0.10;;;12.20;99.90;;;;;;5056079;28;20538;-79
2023/11/14 08:12:15;;;;;;;0.03;0.03;;;12.10;99.90;;;;;;5055548;28;20738;-79
2023/11/14 08:14:41;;;;;;;0.10;0.10;;;12.20;99.90;;;;;;5054216;28;20213;-79
2023/11/14 08:17:07;;;;;;;0.10;0.10;;;12.20;99.90;;;;;;5057617;28;20229;-79
2023/11/14 08:19:33;;;;;;;0.10;0.10;;;12.20;99.90;;;;;;5059905;28;20205;-79
2023/11/14 08:22:04;;;;;;;0.10;0.10;;;12.20;99.90;;;;;;5059674;28;20170;-79
2023/11/14 08:24:30;;;;;;;0.10;0.10;;;12.30;99.90;;;;;;5058630;28;20265;-79
2023/11/14 08:26:55;;;;;;;0.10;0.10;;;12.20;99.90;;;;;;5059683;28;20630;-79
2023/11/14 08:29:21;;;;;;;0.10;0.10;;;12.30;99.90;;;;;;5058986;28;20178;-79
2023/11/14 08:31:47;;;;;;;0.10;0.10;;;12.30;99.90;;;;;;5057368;28;20178;-80
2023/11/14 08:34:12;;;;;;;0.07;0.07;;;12.30;99.90;;;;;;5059471;28;20216;-80
2023/11/14 08:36:38;;;;;;;0.10;0.10;;;12.30;99.90;;;;;;5062442;28;20297;-80
2023/11/14 08:39:04;;;;;;;0.10;0.10;;;12.30;99.90;;;;;;5057862;28;20189;-80
2023/11/14 08:41:30;;;;;;;0.10;0.10;;;12.40;99.90;;;;;;5059566;28;20549;-80
2023/11/14 08:43:57;;;;;;;0.10;0.10;;;12.30;99.90;;;;;;5056681;28;20239;-80
2023/11/14 08:46:22;;;;;;;0.07;0.07;;;12.30;99.90;;;;;;5059242;28;20202;-80
2023/11/14 08:48:48;;;;;;;0.10;0.10;;;12.40;99.90;;;;;;5055357;28;20193;-79
2023/11/14 08:51:16;;;;;;;0.10;0.10;;;12.40;99.90;;;;;;5056024;28;20688;-79
2023/11/14 08:53:43;;;;;;;0.10;0.10;;;12.50;99.90;;;;;;5058691;28;20227;-80
2023/11/14 08:56:09;;;;;;;0.10;0.10;;;12.50;99.90;;;;;;5057996;28;20201;-80
2023/11/14 08:58:36;;;;;;;0.10;0.10;;;12.50;99.90;;;;;;5060490;28;20185;-80
2023/11/14 09:01:02;;;;;;;0.00;0.00;;;12.60;99.90;;;;;;5059805;28;20178;-80
2023/11/14 09:03:27;;;;;;;0.07;0.07;;;12.60;99.90;;;;;;5060236;28;20242;-80
2023/11/14 09:05:53;;;;;;;0.20;0.20;;;12.60;99.90;;;;;;5061483;28;20225;-81
2023/11/14 09:08:18;;;;;;;0.10;0.10;;;12.60;99.90;;;;;;5064157;28;20181;-80
2023/11/14 09:10:44;;;;;;;0.10;0.10;;;12.60;99.90;;;;;;5063635;28;20594;-80
2023/11/14 09:13:12;;;;;;;0.10;0.10;;;12.60;99.90;;;;;;5059493;28;21354;-81
2023/11/14 09:15:38;;;;;;;0.10;0.10;;;12.60;99.90;;;;;;5059698;28;20217;-80
2023/11/14 09:18:04;;;;;;;0.10;0.10;;;12.70;99.90;;;;;;5061352;28;20184;-81
2023/11/14 09:20:29;;;;;;;0.10;0.10;;;12.70;99.90;;;;;;5063640;28;20178;-80
2023/11/14 09:22:56;;;;;;;0.20;0.20;;;12.70;99.90;;;;;;5062281;28;20363;-80
2023/11/14 09:25:22;;;;;;;0.10;0.10;;;12.60;99.90;;;;;;5061720;28;20194;-80
2023/11/14 09:27:47;;;;;;;0.10;0.10;;;12.60;99.90;;;;;;5062056;28;20190;-80
2023/11/14 09:30:14;;;;;;;0.10;0.10;;;12.50;99.90;;;;;;5061623;28;20181;-80
2023/11/14 09:32:40;;;;;;;0.10;0.10;;;12.50;99.90;;;;;;5061863;28;20181;-80
2023/11/14 09:35:07;;;;;;;0.10;0.10;;;12.50;99.90;;;;;;5061269;28;20208;-80
2023/11/14 09:37:33;;;;;;;0.10;0.10;;;12.60;99.90;;;;;;5058941;28;20209;-80
2023/11/14 09:39:58;;;;;;;0.10;0.10;;;12.60;99.90;;;;;;5062595;28;20667;-80
2023/11/14 09:42:25;;;;;;;0.10;0.10;;;12.60;99.90;;;;;;5063991;28;20182;-80
2023/11/14 09:44:51;;;;;;;0.00;0.00;;;12.60;99.90;;;;;;5061717;28;20185;-80
2023/11/14 09:47:17;;;;;;;0.00;0.00;;;12.60;99.90;;;;;;5063004;28;20209;-80
2023/11/14 09:49:43;;;;;;;0.10;0.10;;;12.60;99.90;;;;;;5062853;28;20710;-80
2023/11/14 09:52:12;;;;;;;0.10;0.10;;;12.60;99.90;;;;;;5061050;28;20212;-79
2023/11/14 09:54:41;;;;;;;0.10;0.10;;;12.70;99.90;;;;;;5050652;28;20731;-79
2023/11/14 09:57:08;;;;;;;0.10;0.10;;;12.80;99.90;;;;;;5058356;28;20204;-79
2023/11/14 09:59:34;;;;;;;0.10;0.10;;;12.90;99.90;;;;;;5059623;28;20196;-79
2023/11/14 10:02:00;;;;;;;0.10;0.10;;;12.90;99.90;;;;;;5057504;28;20911;-79
2023/11/14 10:04:26;;;;;;;0.10;0.10;;;12.90;99.90;;;;;;5058242;28;20323;-79
2023/11/14 10:06:52;;;;;;;0.10;0.10;;;12.90;99.90;;;;;;5063870;28;20250;-79
2023/11/14 10:09:21;;;;;;;0.10;0.10;;;12.90;99.90;;;;;;5059161;28;20701;-79
2023/11/14 10:11:47;;;;;;;0.07;0.07;;;12.90;99.90;;;;;;5063685;28;20176;-79
2023/11/14 10:14:14;;;;;;;0.10;0.10;;;12.90;99.90;;;;;;5062638;28;20215;-78
2023/11/14 10:16:40;;;;;;;0.10;0.10;;;12.80;99.90;;;;;;5061617;28;20536;-78
2023/11/14 10:19:14;;;;;;;0.10;0.10;;;12.80;99.90;;;;;;5059344;28;20263;-80
2023/11/14 10:21:40;;;;;;;0.00;0.00;;;12.80;99.90;;;;;;5065284;28;20692;-80
2023/11/14 10:24:16;;;;;;;0.10;0.10;;;12.80;99.90;;;;;;5063435;28;20186;-81
2023/11/14 10:26:50;;;;;;;0.10;0.10;;;12.80;99.90;;;;;;5074153;28;20203;-80
2023/11/14 10:29:20;;;;;;;0.10;0.10;;;12.80;99.90;;;;;;5062059;28;20662;-80
2023/11/14 10:31:46;;;;;;;0.10;0.10;;;12.80;99.90;;;;;;5059293;28;20543;-80
2023/11/14 10:34:27;;;;;;;0.10;0.10;;;12.80;99.90;;;;;;5059664;28;20226;-80
2023/11/14 10:36:54;;;;;;;0.10;0.10;;;12.80;99.90;;;;;;5059337;28;20272;-79
2023/11/14 10:39:20;;;;;;;0.10;0.10;;;12.80;99.90;;;;;;5058261;28;20183;-79
2023/11/14 10:41:46;;;;;;;0.10;0.10;;;12.80;99.90;;;;;;5058794;28;20182;-79
2023/11/14 10:44:13;;;;;;;0.10;0.10;;;12.90;99.90;;;;;;5058080;28;20185;-79
2023/11/14 10:46:58;;;;;;;0.10;0.10;;;13.00;99.90;;;;;;5059473;28;20201;-79
2023/11/14 10:49:24;;;;;;;0.10;0.10;;;12.90;99.90;;;;;;5057250;28;20169;-79
2023/11/14 10:51:51;;;;;;;0.10;0.10;;;13.00;99.90;;;;;;5055681;28;20287;-79
2023/11/14 10:54:18;;;;;;;0.10;0.10;;;13.00;99.90;;;;;;5054191;28;20213;-80
2023/11/14 10:56:44;;;;;;;0.10;0.10;;;13.00;99.90;;;;;;5052771;28;20237;-80
2023/11/14 10:59:15;;;;;;;0.10;0.10;;;13.00;99.90;;;;;;5058713;28;20188;-80
2023/11/14 11:01:45;;;;;;;0.10;0.10;;;13.00;99.90;;;;;;5056366;28;20185;-79
2023/11/14 11:04:13;;;;;;;0.10;0.10;;;13.10;99.90;;;;;;5054874;28;20181;-80
2023/11/14 11:06:39;;;;;;;0.10;0.10;;;13.10;99.90;;;;;;5059287;28;20631;-80
2023/11/14 11:09:05;;;;;;;0.10;0.10;;;13.10;99.90;;;;;;5059044;28;20181;-80
2023/11/14 11:11:33;;;;;;;0.07;0.07;;;13.10;99.90;;;;;;5057391;28;20215;-79
2023/11/14 11:14:02;;;;;;;0.10;0.10;;;13.10;99.90;;;;;;5058701;28;20230;-79
2023/11/14 11:16:48;;;;;;;0.10;0.10;;;13.10;99.90;;;;;;5055649;28;20284;-79
2023/11/14 11:19:25;;;;;;;0.10;0.10;;;13.10;99.90;;;;;;5054436;28;20182;-79
2023/11/14 11:22:13;;;;;;;0.10;0.10;;;13.10;99.90;;;;;;5056591;28;20177;-79
2023/11/14 11:25:17;;;;;;;0.10;0.10;;;13.10;99.90;;;;;;5056360;28;20183;-78
2023/11/14 11:27:43;;;;;;;0.10;0.10;;;13.20;99.90;;;;;;5054624;28;20187;-79
2023/11/14 11:30:12;;;;;;;0.10;0.10;;;13.30;99.90;;;;;;5056896;28;21117;-78
2023/11/14 11:32:40;;;;;;;0.10;0.10;;;13.30;99.90;;;;;;5054138;28;20182;-78
2023/11/14 11:35:21;;;;;;;0.10;0.10;;;13.40;99.90;;;;;;5056384;28;20210;-79
2023/11/14 11:38:09;;;;;;;0.10;0.10;;;13.40;99.90;;;;;;5056712;28;20232;-78
2023/11/14 11:40:37;;;;;;;0.10;0.10;;;13.40;99.90;;;;;;5053110;28;20265;-79
2023/11/14 11:43:24;;;;;;;0.10;0.10;;;13.50;99.90;;;;;;5054865;28;20176;-79
2023/11/14 11:45:50;;;;;;;0.10;0.10;;;13.50;99.90;;;;;;5057577;28;20620;-79
2023/11/14 11:48:34;;;;;;;0.10;0.10;;;13.60;99.90;;;;;;5056170;28;21067;-79
2023/11/14 11:51:20;;;;;;;0.10;0.10;;;13.60;99.90;;;;;;5057377;28;20189;-79
2023/11/14 11:53:49;;;;;;;0.10;0.10;;;13.60;99.90;;;;;;5057686;28;20264;-79
2023/11/14 11:56:34;;;;;;;0.10;0.10;;;13.70;99.90;;;;;;5057236;28;20712;-79
2023/11/14 11:59:01;;;;;;;0.10;0.10;;;13.70;99.90;;;;;;5056255;28;20214;-79
2023/11/14 12:04:51;;;;;;;0.10;0.10;;;13.80;99.90;;;;;;5057181;28;20187;-80
2023/11/14 12:07:18;;;;;;;0.10;0.10;;;13.80;99.90;;;;;;5057035;28;20202;-80
2023/11/14 12:09:45;;;;;;;0.10;0.10;;;13.80;99.90;;;;;;5058835;28;20181;-80
2023/11/14 12:12:13;;;;;;;0.10;0.10;;;13.80;99.90;;;;;;5058210;28;20349;-80
2023/11/14 12:14:38;;;;;;;0.10;0.10;;;13.80;99.90;;;;;;5056349;28;20207;-80
2023/11/14 12:17:06;;;;;;;0.10;0.10;;;13.80;99.90;;;;;;5055663;28;20199;-79
2023/11/14 12:19:32;;;;;;;0.10;0.10;;;13.70;99.90;;;;;;5053531;28;20186;-79
2023/11/14 12:21:58;;;;;;;0.10;0.10;;;13.80;99.90;;;;;;5055793;28;20187;-79
2023/11/14 12:24:23;;;;;;;0.10;0.10;;;13.80;99.90;;;;;;5055964;28;20190;-79
2023/11/14 12:26:49;;;;;;;0.10;0.10;;;13.80;99.90;;;;;;5059220;28;20215;-79
2023/11/14 12:29:15;;;;;;;0.10;0.10;;;13.80;99.90;;;;;;5055161;28;20188;-79
2023/11/14 12:31:52;;;;;;;0.10;0.10;;;13.80;99.90;;;;;;5067141;28;20256;-79
2023/11/14 12:34:24;;;;;;;0.10;0.10;;;13.80;99.90;;;;;;5065391;28;20630;-79
2023/11/14 12:36:50;;;;;;;0.10;0.10;;;13.80;99.90;;;;;;5063227;28;20225;-79
2023/11/14 12:39:19;;;;;;;0.10;0.10;;;13.90;99.90;;;;;;5060577;28;20187;-79
2023/11/14 12:41:46;;;;;;;0.10;0.10;;;13.90;99.90;;;;;;5063859;28;20188;-79
2023/11/14 12:44:12;;;;;;;0.10;0.10;;;14.00;99.90;;;;;;5061367;28;20180;-79
2023/11/14 12:46:48;;;;;;;0.10;0.10;;;14.00;99.90;;;;;;5057267;28;20217;-79
2023/11/14 12:49:17;;;;;;;0.10;0.10;;;14.00;99.90;;;;;;5059947;28;20174;-79